sensor_id;sensor_type;location;lat;lon;timestamp;temperature;humidity
44900;DHT22;30628;51.188;6.770;2022-08-01T00:01:11;23.80;99.90
44900;DHT22;30628;51.188;6.770;2022-08-01T00:03:37;23.70;99.90
44900;DHT22;30628;51.188;6.770;2022-08-01T00:06:03;23.60;99.90
44900;DHT22;30628;51.188;6.770;2022-08-01T00:08:30;23.70;99.90
44900;DHT22;30628;51.188;6.770;2022-08-01T00:10:56;23.60;99.90
44900;DHT22;30628;51.188;6.770;2022-08-01T00:13:23;23.50;99.90
44900;DHT22;30628;51.188;6.770;2022-08-01T00:15:49;23.60;99.90
44900;DHT22;30628;51.188;6.770;2022-08-01T00:18:15;23.60;99.90
44900;DHT22;30628;51.188;6.770;2022-08-01T00:20:41;23.40;99.90
44900;DHT22;30628;51.188;6.770;2022-08-01T00:23:07;23.40;99.90
44900;DHT22;30628;51.188;6.770;2022-08-01T00:25:33;23.40;99.90
44900;DHT22;30628;51.188;6.770;2022-08-01T00:27:59;23.40;99.90
44900;DHT22;30628;51.188;6.770;2022-08-01T00:30:26;23.40;99.90
44900;DHT22;30628;51.188;6.770;2022-08-01T00:32:52;23.30;99.90
44900;DHT22;30628;51.188;6.770;2022-08-01T00:35:18;23.10;99.90
44900;DHT22;30628;51.188;6.770;2022-08-01T00:37:44;23.10;99.90
44900;DHT22;30628;51.188;6.770;2022-08-01T00:40:10;23.00;99.90
44900;DHT22;30628;51.188;6.770;2022-08-01T00:42:37;23.00;99.90
44900;DHT22;30628;51.188;6.770;2022-08-01T00:45:03;23.10;99.90
44900;DHT22;30628;51.188;6.770;2022-08-01T00:47:30;23.20;99.90
44900;DHT22;30628;51.188;6.770;2022-08-01T00:49:56;23.10;99.90
44900;DHT22;30628;51.188;6.770;2022-08-01T00:52:23;23.20;99.90
44900;DHT22;30628;51.188;6.770;2022-08-01T00:54:49;23.10;99.90
44900;DHT22;30628;51.188;6.770;2022-08-01T00:57:16;23.10;99.90
44900;DHT22;30628;51.188;6.770;2022-08-01T00:59:42;23.00;99.90
44900;DHT22;30628;51.188;6.770;2022-08-01T01:02:08;23.10;99.90
44900;DHT22;30628;51.188;6.770;2022-08-01T01:04:34;23.00;99.90
44900;DHT22;30628;51.188;6.770;2022-08-01T01:12:38;23.00;99.90
44900;DHT22;30628;51.188;6.770;2022-08-01T01:15:15;23.10;99.90
44900;DHT22;30628;51.188;6.770;2022-08-01T01:20:14;22.80;99.90
44900;DHT22;30628;51.188;6.770;2022-08-01T01:25:33;22.70;99.90
44900;DHT22;30628;51.188;6.770;2022-08-01T01:30:47;22.50;99.90
44900;DHT22;30628;51.188;6.770;2022-08-01T01:33:16;22.50;99.90
44900;DHT22;30628;51.188;6.770;2022-08-01T01:35:47;22.60;99.90
44900;DHT22;30628;51.188;6.770;2022-08-01T01:38:18;22.40;99.90
44900;DHT22;30628;51.188;6.770;2022-08-01T01:40:47;22.40;99.90
44900;DHT22;30628;51.188;6.770;2022-08-01T01:43:15;22.50;99.90
44900;DHT22;30628;51.188;6.770;2022-08-01T01:45:43;22.60;99.90
44900;DHT22;30628;51.188;6.770;2022-08-01T01:48:11;22.50;99.90
44900;DHT22;30628;51.188;6.770;2022-08-01T01:50:39;22.50;99.90
44900;DHT22;30628;51.188;6.770;2022-08-01T01:53:06;22.40;99.90
44900;DHT22;30628;51.188;6.770;2022-08-01T01:55:38;22.30;99.90
44900;DHT22;30628;51.188;6.770;2022-08-01T01:58:06;22.30;99.90
44900;DHT22;30628;51.188;6.770;2022-08-01T02:00:34;22.20;99.90
44900;DHT22;30628;51.188;6.770;2022-08-01T02:03:02;22.20;99.90
44900;DHT22;30628;51.188;6.770;2022-08-01T02:05:29;22.20;99.90
44900;DHT22;30628;51.188;6.770;2022-08-01T02:07:56;22.40;99.90
44900;DHT22;30628;51.188;6.770;2022-08-01T02:10:24;22.50;99.90
44900;DHT22;30628;51.188;6.770;2022-08-01T02:12:52;22.40;99.90
44900;DHT22;30628;51.188;6.770;2022-08-01T02:15:19;22.40;99.90
44900;DHT22;30628;51.188;6.770;2022-08-01T02:17:48;22.50;99.90
44900;DHT22;30628;51.188;6.770;2022-08-01T02:20:16;22.50;99.90
44900;DHT22;30628;51.188;6.770;2022-08-01T02:22:56;22.40;99.90
44900;DHT22;30628;51.188;6.770;2022-08-01T02:28:04;22.20;99.90
44900;DHT22;30628;51.188;6.770;2022-08-01T02:30:36;22.20;99.90
44900;DHT22;30628;51.188;6.770;2022-08-01T02:33:12;22.30;99.90
44900;DHT22;30628;51.188;6.770;2022-08-01T02:35:41;22.40;99.90
44900;DHT22;30628;51.188;6.770;2022-08-01T02:38:10;22.50;99.90
44900;DHT22;30628;51.188;6.770;2022-08-01T02:40:41;22.40;99.90
44900;DHT22;30628;51.188;6.770;2022-08-01T02:43:09;22.50;99.90
44900;DHT22;30628;51.188;6.770;2022-08-01T02:45:42;22.50;99.90
44900;DHT22;30628;51.188;6.770;2022-08-01T02:48:14;22.40;99.90
44900;DHT22;30628;51.188;6.770;2022-08-01T02:50:43;22.50;99.90
44900;DHT22;30628;51.188;6.770;2022-08-01T02:53:11;22.60;99.90
44900;DHT22;30628;51.188;6.770;2022-08-01T02:55:42;22.70;99.90
44900;DHT22;30628;51.188;6.770;2022-08-01T02:58:11;22.70;99.90
44900;DHT22;30628;51.188;6.770;2022-08-01T03:00:39;22.90;99.90
44900;DHT22;30628;51.188;6.770;2022-08-01T03:03:07;22.80;99.90
44900;DHT22;30628;51.188;6.770;2022-08-01T03:05:35;22.80;99.90
44900;DHT22;30628;51.188;6.770;2022-08-01T03:08:02;22.80;99.90
44900;DHT22;30628;51.188;6.770;2022-08-01T03:10:29;22.70;99.90
44900;DHT22;30628;51.188;6.770;2022-08-01T03:12:58;22.70;99.90
44900;DHT22;30628;51.188;6.770;2022-08-01T03:15:27;22.70;99.90
44900;DHT22;30628;51.188;6.770;2022-08-01T03:17:56;22.60;99.90
44900;DHT22;30628;51.188;6.770;2022-08-01T03:20:23;22.80;99.90
44900;DHT22;30628;51.188;6.770;2022-08-01T03:22:52;22.90;99.90
44900;DHT22;30628;51.188;6.770;2022-08-01T03:25:20;22.90;99.90
44900;DHT22;30628;51.188;6.770;2022-08-01T03:27:52;22.90;99.90
44900;DHT22;30628;51.188;6.770;2022-08-01T03:30:22;22.90;99.90
44900;DHT22;30628;51.188;6.770;2022-08-01T03:32:49;22.90;99.90
44900;DHT22;30628;51.188;6.770;2022-08-01T03:35:15;22.80;99.90
44900;DHT22;30628;51.188;6.770;2022-08-01T03:37:45;22.70;99.90
44900;DHT22;30628;51.188;6.770;2022-08-01T03:40:22;22.70;99.90
44900;DHT22;30628;51.188;6.770;2022-08-01T03:42:54;22.70;99.90
44900;DHT22;30628;51.188;6.770;2022-08-01T03:45:37;22.70;99.90
44900;DHT22;30628;51.188;6.770;2022-08-01T03:48:12;22.80;99.90
44900;DHT22;30628;51.188;6.770;2022-08-01T03:50:48;22.60;99.90
44900;DHT22;30628;51.188;6.770;2022-08-01T03:53:22;22.50;99.90
44900;DHT22;30628;51.188;6.770;2022-08-01T03:55:49;22.50;99.90
44900;DHT22;30628;51.188;6.770;2022-08-01T03:58:16;22.60;99.90
44900;DHT22;30628;51.188;6.770;2022-08-01T04:00:43;22.60;99.90
44900;DHT22;30628;51.188;6.770;2022-08-01T04:03:10;22.60;99.90
44900;DHT22;30628;51.188;6.770;2022-08-01T04:05:41;22.60;99.90
44900;DHT22;30628;51.188;6.770;2022-08-01T04:08:07;22.50;99.90
44900;DHT22;30628;51.188;6.770;2022-08-01T04:10:33;22.50;99.90
44900;DHT22;30628;51.188;6.770;2022-08-01T04:13:00;22.30;99.90
44900;DHT22;30628;51.188;6.770;2022-08-01T04:15:26;22.30;99.90
44900;DHT22;30628;51.188;6.770;2022-08-01T04:17:52;22.30;99.90
44900;DHT22;30628;51.188;6.770;2022-08-01T04:20:20;22.20;99.90
44900;DHT22;30628;51.188;6.770;2022-08-01T04:22:46;22.30;99.90
44900;DHT22;30628;51.188;6.770;2022-08-01T04:25:17;22.30;99.90
44900;DHT22;30628;51.188;6.770;2022-08-01T04:27:47;22.30;99.90
44900;DHT22;30628;51.188;6.770;2022-08-01T04:30:16;22.30;99.90
44900;DHT22;30628;51.188;6.770;2022-08-01T04:32:45;22.30;99.90
44900;DHT22;30628;51.188;6.770;2022-08-01T04:35:14;22.40;99.90
44900;DHT22;30628;51.188;6.770;2022-08-01T04:37:44;22.30;99.90
44900;DHT22;30628;51.188;6.770;2022-08-01T04:40:12;22.30;99.90
44900;DHT22;30628;51.188;6.770;2022-08-01T04:42:38;22.40;99.90
44900;DHT22;30628;51.188;6.770;2022-08-01T04:45:05;22.50;99.90
44900;DHT22;30628;51.188;6.770;2022-08-01T04:47:38;22.60;99.90
44900;DHT22;30628;51.188;6.770;2022-08-01T04:50:06;22.70;99.90
44900;DHT22;30628;51.188;6.770;2022-08-01T04:52:36;22.80;99.90
44900;DHT22;30628;51.188;6.770;2022-08-01T04:55:04;22.70;99.90
44900;DHT22;30628;51.188;6.770;2022-08-01T04:57:37;22.70;99.90
44900;DHT22;30628;51.188;6.770;2022-08-01T05:00:05;22.50;99.90
44900;DHT22;30628;51.188;6.770;2022-08-01T05:02:32;22.50;99.90
44900;DHT22;30628;51.188;6.770;2022-08-01T05:04:58;22.40;99.90
44900;DHT22;30628;51.188;6.770;2022-08-01T05:07:25;22.40;99.90
44900;DHT22;30628;51.188;6.770;2022-08-01T05:09:51;22.40;99.90
44900;DHT22;30628;51.188;6.770;2022-08-01T05:12:17;22.30;99.90
44900;DHT22;30628;51.188;6.770;2022-08-01T05:14:44;22.30;99.90
44900;DHT22;30628;51.188;6.770;2022-08-01T05:17:10;22.30;99.90
44900;DHT22;30628;51.188;6.770;2022-08-01T05:19:38;22.40;99.90
44900;DHT22;30628;51.188;6.770;2022-08-01T05:22:06;22.50;99.90
44900;DHT22;30628;51.188;6.770;2022-08-01T05:24:34;22.40;99.90
44900;DHT22;30628;51.188;6.770;2022-08-01T05:27:01;22.40;99.90
44900;DHT22;30628;51.188;6.770;2022-08-01T05:29:27;22.40;99.90
44900;DHT22;30628;51.188;6.770;2022-08-01T05:31:54;22.30;99.90
44900;DHT22;30628;51.188;6.770;2022-08-01T05:34:20;22.50;99.90
44900;DHT22;30628;51.188;6.770;2022-08-01T05:36:47;22.60;99.90
44900;DHT22;30628;51.188;6.770;2022-08-01T05:39:14;22.60;99.90
44900;DHT22;30628;51.188;6.770;2022-08-01T05:41:41;22.80;99.90
44900;DHT22;30628;51.188;6.770;2022-08-01T05:44:08;22.90;99.90
44900;DHT22;30628;51.188;6.770;2022-08-01T05:46:35;22.90;99.90
44900;DHT22;30628;51.188;6.770;2022-08-01T05:49:03;23.00;99.90
44900;DHT22;30628;51.188;6.770;2022-08-01T05:51:29;22.90;99.90
44900;DHT22;30628;51.188;6.770;2022-08-01T05:53:55;22.70;99.90
44900;DHT22;30628;51.188;6.770;2022-08-01T05:56:22;22.60;99.90
44900;DHT22;30628;51.188;6.770;2022-08-01T05:58:49;22.60;99.90
44900;DHT22;30628;51.188;6.770;2022-08-01T06:01:16;22.60;99.90
44900;DHT22;30628;51.188;6.770;2022-08-01T06:03:42;22.50;99.90
44900;DHT22;30628;51.188;6.770;2022-08-01T06:06:08;22.60;99.90
44900;DHT22;30628;51.188;6.770;2022-08-01T06:08:34;22.80;99.90
44900;DHT22;30628;51.188;6.770;2022-08-01T06:11:01;22.80;99.90
44900;DHT22;30628;51.188;6.770;2022-08-01T06:13:27;22.90;99.90
44900;DHT22;30628;51.188;6.770;2022-08-01T06:15:53;22.90;99.90
44900;DHT22;30628;51.188;6.770;2022-08-01T06:18:20;22.90;99.90
44900;DHT22;30628;51.188;6.770;2022-08-01T06:20:46;22.90;99.90
44900;DHT22;30628;51.188;6.770;2022-08-01T06:23:12;22.90;99.90
44900;DHT22;30628;51.188;6.770;2022-08-01T06:25:42;22.90;99.90
44900;DHT22;30628;51.188;6.770;2022-08-01T06:28:09;23.00;99.90
44900;DHT22;30628;51.188;6.770;2022-08-01T06:30:35;22.90;99.90
44900;DHT22;30628;51.188;6.770;2022-08-01T06:33:01;23.00;99.90
44900;DHT22;30628;51.188;6.770;2022-08-01T06:35:28;23.10;99.90
44900;DHT22;30628;51.188;6.770;2022-08-01T06:37:56;23.10;99.90
44900;DHT22;30628;51.188;6.770;2022-08-01T06:40:23;23.00;99.90
44900;DHT22;30628;51.188;6.770;2022-08-01T06:42:50;23.10;99.90
44900;DHT22;30628;51.188;6.770;2022-08-01T06:45:16;23.20;99.90
44900;DHT22;30628;51.188;6.770;2022-08-01T06:47:44;23.30;99.90
44900;DHT22;30628;51.188;6.770;2022-08-01T06:50:11;23.30;99.90
44900;DHT22;30628;51.188;6.770;2022-08-01T06:52:37;23.30;99.90
44900;DHT22;30628;51.188;6.770;2022-08-01T06:55:04;23.30;99.90
44900;DHT22;30628;51.188;6.770;2022-08-01T06:57:30;23.40;99.90
44900;DHT22;30628;51.188;6.770;2022-08-01T06:59:57;23.50;99.90
44900;DHT22;30628;51.188;6.770;2022-08-01T07:02:23;23.30;99.90
44900;DHT22;30628;51.188;6.770;2022-08-01T07:04:49;23.30;99.90
44900;DHT22;30628;51.188;6.770;2022-08-01T07:07:16;23.40;99.90
44900;DHT22;30628;51.188;6.770;2022-08-01T07:09:42;23.40;99.90
44900;DHT22;30628;51.188;6.770;2022-08-01T07:12:08;23.40;99.90
44900;DHT22;30628;51.188;6.770;2022-08-01T07:14:35;23.50;99.90
44900;DHT22;30628;51.188;6.770;2022-08-01T07:17:01;23.60;99.90
44900;DHT22;30628;51.188;6.770;2022-08-01T07:19:27;23.60;99.90
44900;DHT22;30628;51.188;6.770;2022-08-01T07:21:53;23.60;99.90
44900;DHT22;30628;51.188;6.770;2022-08-01T07:24:20;23.50;99.90
44900;DHT22;30628;51.188;6.770;2022-08-01T07:26:48;23.60;99.90
44900;DHT22;30628;51.188;6.770;2022-08-01T07:29:14;23.60;99.90
44900;DHT22;30628;51.188;6.770;2022-08-01T07:31:40;23.60;99.90
44900;DHT22;30628;51.188;6.770;2022-08-01T07:34:07;23.60;99.90
44900;DHT22;30628;51.188;6.770;2022-08-01T07:36:33;23.50;99.90
44900;DHT22;30628;51.188;6.770;2022-08-01T07:38:59;23.70;99.90
44900;DHT22;30628;51.188;6.770;2022-08-01T07:41:25;23.50;99.90
44900;DHT22;30628;51.188;6.770;2022-08-01T07:43:52;23.40;99.90
44900;DHT22;30628;51.188;6.770;2022-08-01T07:46:18;23.50;99.90
44900;DHT22;30628;51.188;6.770;2022-08-01T07:48:44;23.60;99.90
44900;DHT22;30628;51.188;6.770;2022-08-01T07:51:10;23.70;99.90
44900;DHT22;30628;51.188;6.770;2022-08-01T07:53:38;23.80;99.90
44900;DHT22;30628;51.188;6.770;2022-08-01T07:56:04;23.90;99.90
44900;DHT22;30628;51.188;6.770;2022-08-01T07:58:33;24.10;99.90
44900;DHT22;30628;51.188;6.770;2022-08-01T08:00:59;24.10;99.90
44900;DHT22;30628;51.188;6.770;2022-08-01T08:03:25;24.20;99.90
44900;DHT22;30628;51.188;6.770;2022-08-01T08:05:52;24.20;99.90
44900;DHT22;30628;51.188;6.770;2022-08-01T08:08:18;24.10;99.90
44900;DHT22;30628;51.188;6.770;2022-08-01T08:10:44;24.10;99.90
44900;DHT22;30628;51.188;6.770;2022-08-01T08:13:11;24.30;99.90
44900;DHT22;30628;51.188;6.770;2022-08-01T08:15:37;24.40;99.90
44900;DHT22;30628;51.188;6.770;2022-08-01T08:18:04;24.50;99.90
44900;DHT22;30628;51.188;6.770;2022-08-01T08:20:31;24.50;99.90
44900;DHT22;30628;51.188;6.770;2022-08-01T08:22:57;24.60;99.90
44900;DHT22;30628;51.188;6.770;2022-08-01T08:25:26;24.50;99.90
44900;DHT22;30628;51.188;6.770;2022-08-01T08:27:53;24.60;99.90
44900;DHT22;30628;51.188;6.770;2022-08-01T08:30:19;24.70;99.90
44900;DHT22;30628;51.188;6.770;2022-08-01T08:32:46;24.80;99.90
44900;DHT22;30628;51.188;6.770;2022-08-01T08:35:12;24.70;99.90
44900;DHT22;30628;51.188;6.770;2022-08-01T08:37:39;24.80;99.90
44900;DHT22;30628;51.188;6.770;2022-08-01T08:40:06;24.90;99.90
44900;DHT22;30628;51.188;6.770;2022-08-01T08:42:32;25.00;99.90
44900;DHT22;30628;51.188;6.770;2022-08-01T08:44:59;25.10;99.90
44900;DHT22;30628;51.188;6.770;2022-08-01T08:47:25;25.20;99.90
44900;DHT22;30628;51.188;6.770;2022-08-01T08:49:54;25.20;99.90
44900;DHT22;30628;51.188;6.770;2022-08-01T08:52:20;25.10;99.90
44900;DHT22;30628;51.188;6.770;2022-08-01T08:54:49;25.00;99.90
44900;DHT22;30628;51.188;6.770;2022-08-01T08:57:15;25.10;99.90
44900;DHT22;30628;51.188;6.770;2022-08-01T08:59:44;25.20;99.90
44900;DHT22;30628;51.188;6.770;2022-08-01T09:02:11;25.20;99.90
44900;DHT22;30628;51.188;6.770;2022-08-01T09:04:38;25.30;99.90
44900;DHT22;30628;51.188;6.770;2022-08-01T09:07:06;25.30;99.90
44900;DHT22;30628;51.188;6.770;2022-08-01T09:09:33;25.20;99.90
44900;DHT22;30628;51.188;6.770;2022-08-01T09:12:00;25.40;99.90
44900;DHT22;30628;51.188;6.770;2022-08-01T09:14:28;25.50;99.90
44900;DHT22;30628;51.188;6.770;2022-08-01T09:17:03;25.50;99.90
44900;DHT22;30628;51.188;6.770;2022-08-01T09:19:43;25.80;99.90
44900;DHT22;30628;51.188;6.770;2022-08-01T09:22:13;25.90;99.60
44900;DHT22;30628;51.188;6.770;2022-08-01T09:24:40;26.00;99.20
44900;DHT22;30628;51.188;6.770;2022-08-01T09:27:18;26.20;98.90
44900;DHT22;30628;51.188;6.770;2022-08-01T09:29:45;26.40;99.00
44900;DHT22;30628;51.188;6.770;2022-08-01T09:32:11;26.50;98.50
44900;DHT22;30628;51.188;6.770;2022-08-01T09:34:37;26.80;97.30
44900;DHT22;30628;51.188;6.770;2022-08-01T09:37:03;26.80;98.40
44900;DHT22;30628;51.188;6.770;2022-08-01T09:39:34;26.80;98.70
44900;DHT22;30628;51.188;6.770;2022-08-01T09:42:19;26.90;98.50
44900;DHT22;30628;51.188;6.770;2022-08-01T09:44:46;27.00;98.20
44900;DHT22;30628;51.188;6.770;2022-08-01T09:47:13;26.90;97.70
44900;DHT22;30628;51.188;6.770;2022-08-01T09:49:41;27.00;98.00
44900;DHT22;30628;51.188;6.770;2022-08-01T09:52:20;27.00;97.70
44900;DHT22;30628;51.188;6.770;2022-08-01T09:54:55;26.70;97.50
44900;DHT22;30628;51.188;6.770;2022-08-01T09:57:22;26.90;97.70
44900;DHT22;30628;51.188;6.770;2022-08-01T09:59:54;26.90;97.70
44900;DHT22;30628;51.188;6.770;2022-08-01T10:02:33;27.10;97.30
44900;DHT22;30628;51.188;6.770;2022-08-01T10:05:02;27.30;97.50
44900;DHT22;30628;51.188;6.770;2022-08-01T10:07:28;27.30;97.20
44900;DHT22;30628;51.188;6.770;2022-08-01T10:09:55;27.40;97.10
44900;DHT22;30628;51.188;6.770;2022-08-01T10:12:22;27.20;96.60
44900;DHT22;30628;51.188;6.770;2022-08-01T10:14:50;27.40;97.20
44900;DHT22;30628;51.188;6.770;2022-08-01T10:17:19;27.60;97.50
44900;DHT22;30628;51.188;6.770;2022-08-01T10:19:46;27.60;97.10
44900;DHT22;30628;51.188;6.770;2022-08-01T10:22:16;27.60;96.80
44900;DHT22;30628;51.188;6.770;2022-08-01T10:24:47;27.30;97.70
44900;DHT22;30628;51.188;6.770;2022-08-01T10:27:15;27.10;97.80
44900;DHT22;30628;51.188;6.770;2022-08-01T10:29:59;27.10;97.60
44900;DHT22;30628;51.188;6.770;2022-08-01T10:32:30;27.30;97.80
44900;DHT22;30628;51.188;6.770;2022-08-01T10:34:57;27.30;97.50
44900;DHT22;30628;51.188;6.770;2022-08-01T10:37:24;27.60;97.30
44900;DHT22;30628;51.188;6.770;2022-08-01T10:39:52;27.40;97.00
44900;DHT22;30628;51.188;6.770;2022-08-01T10:42:19;27.50;97.00
44900;DHT22;30628;51.188;6.770;2022-08-01T10:44:45;27.50;96.60
44900;DHT22;30628;51.188;6.770;2022-08-01T10:47:17;27.40;96.30
44900;DHT22;30628;51.188;6.770;2022-08-01T10:50:01;27.50;96.00
44900;DHT22;30628;51.188;6.770;2022-08-01T10:52:29;27.30;96.40
44900;DHT22;30628;51.188;6.770;2022-08-01T10:55:04;27.30;95.90
44900;DHT22;30628;51.188;6.770;2022-08-01T10:57:46;27.30;96.00
44900;DHT22;30628;51.188;6.770;2022-08-01T11:00:17;27.40;96.20
44900;DHT22;30628;51.188;6.770;2022-08-01T11:03:00;27.70;95.70
44900;DHT22;30628;51.188;6.770;2022-08-01T11:05:30;27.90;95.40
44900;DHT22;30628;51.188;6.770;2022-08-01T11:08:41;27.80;95.60
44900;DHT22;30628;51.188;6.770;2022-08-01T11:11:02;27.60;95.10
44900;DHT22;30628;51.188;6.770;2022-08-01T11:16:28;27.70;96.00
44900;DHT22;30628;51.188;6.770;2022-08-01T11:18:55;27.90;95.10
44900;DHT22;30628;51.188;6.770;2022-08-01T11:21:21;28.00;95.60
44900;DHT22;30628;51.188;6.770;2022-08-01T11:23:52;28.00;95.00
44900;DHT22;30628;51.188;6.770;2022-08-01T11:26:20;28.10;95.00
44900;DHT22;30628;51.188;6.770;2022-08-01T11:29:16;28.20;94.80
44900;DHT22;30628;51.188;6.770;2022-08-01T11:31:43;28.30;95.20
44900;DHT22;30628;51.188;6.770;2022-08-01T11:34:09;28.20;95.30
44900;DHT22;30628;51.188;6.770;2022-08-01T11:36:36;28.20;95.30
44900;DHT22;30628;51.188;6.770;2022-08-01T11:41:32;28.00;95.20
44900;DHT22;30628;51.188;6.770;2022-08-01T11:46:52;28.20;95.50
44900;DHT22;30628;51.188;6.770;2022-08-01T11:54:49;28.20;93.60
44900;DHT22;30628;51.188;6.770;2022-08-01T11:57:21;28.20;93.30
44900;DHT22;30628;51.188;6.770;2022-08-01T11:59:52;28.20;93.90
44900;DHT22;30628;51.188;6.770;2022-08-01T12:02:26;28.20;92.70
44900;DHT22;30628;51.188;6.770;2022-08-01T12:04:59;28.20;93.50
44900;DHT22;30628;51.188;6.770;2022-08-01T12:07:28;28.10;92.70
44900;DHT22;30628;51.188;6.770;2022-08-01T12:09:59;28.20;94.70
44900;DHT22;30628;51.188;6.770;2022-08-01T12:12:27;28.30;95.00
44900;DHT22;30628;51.188;6.770;2022-08-01T12:14:59;28.40;93.40
44900;DHT22;30628;51.188;6.770;2022-08-01T12:19:55;28.40;93.20
44900;DHT22;30628;51.188;6.770;2022-08-01T12:22:23;28.40;94.50
44900;DHT22;30628;51.188;6.770;2022-08-01T12:24:49;28.30;94.20
44900;DHT22;30628;51.188;6.770;2022-08-01T12:27:28;28.40;94.60
44900;DHT22;30628;51.188;6.770;2022-08-01T12:29:55;28.40;94.40
44900;DHT22;30628;51.188;6.770;2022-08-01T12:32:29;28.40;94.60
44900;DHT22;30628;51.188;6.770;2022-08-01T12:35:04;28.60;94.60
44900;DHT22;30628;51.188;6.770;2022-08-01T12:37:36;28.60;94.30
44900;DHT22;30628;51.188;6.770;2022-08-01T12:40:22;28.60;94.40
44900;DHT22;30628;51.188;6.770;2022-08-01T12:42:53;28.70;92.80
44900;DHT22;30628;51.188;6.770;2022-08-01T12:45:35;28.50;92.70
44900;DHT22;30628;51.188;6.770;2022-08-01T12:48:07;28.60;91.90
44900;DHT22;30628;51.188;6.770;2022-08-01T12:50:35;28.60;91.70
44900;DHT22;30628;51.188;6.770;2022-08-01T12:53:02;28.60;93.20
44900;DHT22;30628;51.188;6.770;2022-08-01T12:55:28;28.70;94.20
44900;DHT22;30628;51.188;6.770;2022-08-01T12:58:09;28.70;93.90
44900;DHT22;30628;51.188;6.770;2022-08-01T13:00:38;28.60;94.00
44900;DHT22;30628;51.188;6.770;2022-08-01T13:03:12;28.70;92.90
44900;DHT22;30628;51.188;6.770;2022-08-01T13:05:44;28.80;93.20
44900;DHT22;30628;51.188;6.770;2022-08-01T13:08:19;28.70;92.00
44900;DHT22;30628;51.188;6.770;2022-08-01T13:10:47;28.90;93.60
44900;DHT22;30628;51.188;6.770;2022-08-01T13:13:17;28.90;93.20
44900;DHT22;30628;51.188;6.770;2022-08-01T13:15:44;28.70;92.30
44900;DHT22;30628;51.188;6.770;2022-08-01T13:18:30;28.50;93.90
44900;DHT22;30628;51.188;6.770;2022-08-01T13:21:27;28.80;94.40
44900;DHT22;30628;51.188;6.770;2022-08-01T13:29:12;29.00;94.30
44900;DHT22;30628;51.188;6.770;2022-08-01T13:31:39;28.80;92.90
44900;DHT22;30628;51.188;6.770;2022-08-01T13:34:06;28.70;94.00
44900;DHT22;30628;51.188;6.770;2022-08-01T13:36:32;28.80;94.20
44900;DHT22;30628;51.188;6.770;2022-08-01T13:39:00;28.90;94.20
44900;DHT22;30628;51.188;6.770;2022-08-01T13:41:46;29.00;94.20
44900;DHT22;30628;51.188;6.770;2022-08-01T13:44:12;29.00;93.80
44900;DHT22;30628;51.188;6.770;2022-08-01T13:46:40;29.00;93.10
44900;DHT22;30628;51.188;6.770;2022-08-01T13:49:07;29.00;94.10
44900;DHT22;30628;51.188;6.770;2022-08-01T13:51:35;29.00;93.60
44900;DHT22;30628;51.188;6.770;2022-08-01T13:54:02;29.00;94.00
44900;DHT22;30628;51.188;6.770;2022-08-01T13:56:28;29.10;93.70
44900;DHT22;30628;51.188;6.770;2022-08-01T13:58:55;29.10;93.50
44900;DHT22;30628;51.188;6.770;2022-08-01T14:01:23;28.70;92.70
44900;DHT22;30628;51.188;6.770;2022-08-01T14:03:50;28.70;92.70
44900;DHT22;30628;51.188;6.770;2022-08-01T14:06:19;28.50;93.90
44900;DHT22;30628;51.188;6.770;2022-08-01T14:08:48;28.40;93.70
44900;DHT22;30628;51.188;6.770;2022-08-01T14:11:15;28.30;94.20
44900;DHT22;30628;51.188;6.770;2022-08-01T14:13:41;28.60;94.70
44900;DHT22;30628;51.188;6.770;2022-08-01T14:16:08;28.60;93.50
44900;DHT22;30628;51.188;6.770;2022-08-01T14:18:34;28.60;94.20
44900;DHT22;30628;51.188;6.770;2022-08-01T14:21:00;28.50;93.60
44900;DHT22;30628;51.188;6.770;2022-08-01T14:23:27;28.40;94.30
44900;DHT22;30628;51.188;6.770;2022-08-01T14:25:53;27.90;94.30
44900;DHT22;30628;51.188;6.770;2022-08-01T14:28:19;28.20;94.10
44900;DHT22;30628;51.188;6.770;2022-08-01T14:30:46;28.40;94.20
44900;DHT22;30628;51.188;6.770;2022-08-01T14:33:13;28.30;93.70
44900;DHT22;30628;51.188;6.770;2022-08-01T14:35:41;28.40;94.00
44900;DHT22;30628;51.188;6.770;2022-08-01T14:38:07;28.50;94.10
44900;DHT22;30628;51.188;6.770;2022-08-01T14:40:34;28.50;93.30
44900;DHT22;30628;51.188;6.770;2022-08-01T14:43:01;28.30;93.70
44900;DHT22;30628;51.188;6.770;2022-08-01T14:45:27;28.50;94.10
44900;DHT22;30628;51.188;6.770;2022-08-01T14:47:54;28.60;94.10
44900;DHT22;30628;51.188;6.770;2022-08-01T14:50:20;28.70;93.80
44900;DHT22;30628;51.188;6.770;2022-08-01T14:52:46;28.60;93.70
44900;DHT22;30628;51.188;6.770;2022-08-01T14:55:13;28.60;93.20
44900;DHT22;30628;51.188;6.770;2022-08-01T14:57:40;28.40;92.80
44900;DHT22;30628;51.188;6.770;2022-08-01T15:00:08;28.10;94.00
44900;DHT22;30628;51.188;6.770;2022-08-01T15:02:37;28.30;93.90
44900;DHT22;30628;51.188;6.770;2022-08-01T15:05:04;28.40;93.60
44900;DHT22;30628;51.188;6.770;2022-08-01T15:07:30;28.50;94.10
44900;DHT22;30628;51.188;6.770;2022-08-01T15:09:56;28.50;94.00
44900;DHT22;30628;51.188;6.770;2022-08-01T15:12:22;28.50;93.60
44900;DHT22;30628;51.188;6.770;2022-08-01T15:14:49;28.40;94.10
44900;DHT22;30628;51.188;6.770;2022-08-01T15:17:20;28.40;93.50
44900;DHT22;30628;51.188;6.770;2022-08-01T15:19:47;28.30;93.20
44900;DHT22;30628;51.188;6.770;2022-08-01T15:22:14;27.90;93.60
44900;DHT22;30628;51.188;6.770;2022-08-01T15:24:41;27.70;94.30
44900;DHT22;30628;51.188;6.770;2022-08-01T15:27:08;28.00;94.60
44900;DHT22;30628;51.188;6.770;2022-08-01T15:29:34;28.00;94.00
44900;DHT22;30628;51.188;6.770;2022-08-01T15:32:02;28.20;94.50
44900;DHT22;30628;51.188;6.770;2022-08-01T15:34:30;28.30;93.80
44900;DHT22;30628;51.188;6.770;2022-08-01T15:36:57;28.30;94.20
44900;DHT22;30628;51.188;6.770;2022-08-01T15:39:23;28.30;93.90
44900;DHT22;30628;51.188;6.770;2022-08-01T15:41:50;28.30;94.20
44900;DHT22;30628;51.188;6.770;2022-08-01T15:44:17;28.50;94.30
44900;DHT22;30628;51.188;6.770;2022-08-01T15:46:48;28.60;93.50
44900;DHT22;30628;51.188;6.770;2022-08-01T15:49:15;28.60;94.20
44900;DHT22;30628;51.188;6.770;2022-08-01T15:51:42;28.60;93.30
44900;DHT22;30628;51.188;6.770;2022-08-01T15:54:09;28.70;94.00
44900;DHT22;30628;51.188;6.770;2022-08-01T15:56:36;28.60;93.70
44900;DHT22;30628;51.188;6.770;2022-08-01T15:59:03;28.60;93.80
44900;DHT22;30628;51.188;6.770;2022-08-01T16:01:29;28.60;93.20
44900;DHT22;30628;51.188;6.770;2022-08-01T16:03:57;28.50;94.00
44900;DHT22;30628;51.188;6.770;2022-08-01T16:06:24;28.50;93.90
44900;DHT22;30628;51.188;6.770;2022-08-01T16:08:50;28.50;94.00
44900;DHT22;30628;51.188;6.770;2022-08-01T16:11:18;27.70;93.20
44900;DHT22;30628;51.188;6.770;2022-08-01T16:13:45;27.30;93.30
44900;DHT22;30628;51.188;6.770;2022-08-01T16:16:13;27.20;94.90